sensor_id;sensor_type;location;lat;lon;timestamp;pressure;altitude;pressure_sealevel;temperature;humidity
80678;BME280;70042;52.494;5.502;2023-07-29T00:01:49;100831.47;;;23.13;64.89
80678;BME280;70042;52.494;5.502;2023-07-29T00:04:15;100842.28;;;23.10;65.02
80678;BME280;70042;52.494;5.502;2023-07-29T00:06:40;100841.31;;;23.11;64.93
80678;BME280;70042;52.494;5.502;2023-07-29T00:09:05;100835.22;;;23.09;65.18
80678;BME280;70042;52.494;5.502;2023-07-29T00:11:31;100836.38;;;23.03;65.27
80678;BME280;70042;52.494;5.502;2023-07-29T00:14:01;100826.59;;;23.04;65.07
80678;BME280;70042;52.494;5.502;2023-07-29T00:16:27;100827.44;;;23.04;64.79
80678;BME280;70042;52.494;5.502;2023-07-29T00:18:52;100818.44;;;23.07;64.46
80678;BME280;70042;52.494;5.502;2023-07-29T00:21:18;100813.91;;;23.09;64.54
80678;BME280;70042;52.494;5.502;2023-07-29T00:23:44;100815.63;;;23.10;64.67
80678;BME280;70042;52.494;5.502;2023-07-29T00:26:10;100816.47;;;23.10;64.60
80678;BME280;70042;52.494;5.502;2023-07-29T00:28:35;100814.63;;;23.12;64.58
80678;BME280;70042;52.494;5.502;2023-07-29T00:31:01;100800.47;;;23.10;64.68
80678;BME280;70042;52.494;5.502;2023-07-29T00:33:27;100793.44;;;23.09;64.51
80678;BME280;70042;52.494;5.502;2023-07-29T00:35:52;100805.91;;;23.09;64.49
80678;BME280;70042;52.494;5.502;2023-07-29T00:38:18;100808.56;;;23.09;64.62
80678;BME280;70042;52.494;5.502;2023-07-29T00:40:43;100805.13;;;23.07;64.53
80678;BME280;70042;52.494;5.502;2023-07-29T00:43:08;100805.97;;;23.07;64.36
80678;BME280;70042;52.494;5.502;2023-07-29T00:45:34;100801.50;;;23.08;64.45
80678;BME280;70042;52.494;5.502;2023-07-29T00:48:00;100805.13;;;23.07;64.39
80678;BME280;70042;52.494;5.502;2023-07-29T00:50:27;100800.72;;;23.06;64.58
80678;BME280;70042;52.494;5.502;2023-07-29T00:52:54;100800.78;;;23.04;64.54
80678;BME280;70042;52.494;5.502;2023-07-29T00:55:20;100794.63;;;23.04;64.31
80678;BME280;70042;52.494;5.502;2023-07-29T00:57:46;100785.66;;;23.05;64.55
80678;BME280;70042;52.494;5.502;2023-07-29T01:00:14;100799.84;;;23.05;64.60
80678;BME280;70042;52.494;5.502;2023-07-29T01:02:42;100780.41;;;23.03;64.33
80678;BME280;70042;52.494;5.502;2023-07-29T01:05:08;100776.00;;;23.02;64.13
80678;BME280;70042;52.494;5.502;2023-07-29T01:07:59;100783.22;;;23.00;64.17
80678;BME280;70042;52.494;5.502;2023-07-29T01:13:37;100765.44;;;23.01;64.13
80678;BME280;70042;52.494;5.502;2023-07-29T01:16:10;100775.16;;;23.02;64.54
80678;BME280;70042;52.494;5.502;2023-07-29T01:18:39;100768.94;;;23.01;64.04
80678;BME280;70042;52.494;5.502;2023-07-29T01:21:07;100766.38;;;23.00;64.33
80678;BME280;70042;52.494;5.502;2023-07-29T01:23:35;100767.16;;;23.02;63.95
80678;BME280;70042;52.494;5.502;2023-07-29T01:26:02;100762.78;;;23.01;63.94
80678;BME280;70042;52.494;5.502;2023-07-29T01:28:28;100764.47;;;23.02;64.29
80678;BME280;70042;52.494;5.502;2023-07-29T01:31:22;100760.03;;;23.02;64.14
80678;BME280;70042;52.494;5.502;2023-07-29T01:33:49;100764.47;;;23.02;64.19
80678;BME280;70042;52.494;5.502;2023-07-29T01:36:21;100760.91;;;23.03;64.16
80678;BME280;70042;52.494;5.502;2023-07-29T01:38:49;100759.16;;;23.02;64.26
80678;BME280;70042;52.494;5.502;2023-07-29T01:41:17;100759.16;;;23.02;63.98
80678;BME280;70042;52.494;5.502;2023-07-29T01:43:43;100753.06;;;23.00;64.34
80678;BME280;70042;52.494;5.502;2023-07-29T01:46:13;100753.81;;;23.02;63.86
80678;BME280;70042;52.494;5.502;2023-07-29T01:48:39;100759.16;;;23.02;63.83
80678;BME280;70042;52.494;5.502;2023-07-29T01:51:05;100760.03;;;23.02;64.00
80678;BME280;70042;52.494;5.502;2023-07-29T01:53:31;100753.81;;;23.02;63.91
80678;BME280;70042;52.494;5.502;2023-07-29T01:55:57;100758.38;;;23.00;63.89
80678;BME280;70042;52.494;5.502;2023-07-29T01:58:23;100756.59;;;23.00;63.97
80678;BME280;70042;52.494;5.502;2023-07-29T02:00:48;100756.66;;;22.99;63.94
80678;BME280;70042;52.494;5.502;2023-07-29T02:03:13;100752.25;;;22.98;63.68
80678;BME280;70042;52.494;5.502;2023-07-29T02:05:39;100756.78;;;22.96;64.04
80678;BME280;70042;52.494;5.502;2023-07-29T02:08:04;100761.34;;;22.94;64.26
80678;BME280;70042;52.494;5.502;2023-07-29T02:10:30;100755.91;;;22.95;64.20
80678;BME280;70042;52.494;5.502;2023-07-29T02:12:55;100752.38;;;22.95;64.02
80678;BME280;70042;52.494;5.502;2023-07-29T02:15:20;100752.38;;;22.95;63.60
80678;BME280;70042;52.494;5.502;2023-07-29T02:17:46;100747.00;;;22.96;63.84
80678;BME280;70042;52.494;5.502;2023-07-29T02:20:11;100753.25;;;22.95;63.97
80678;BME280;70042;52.494;5.502;2023-07-29T02:22:36;100749.66;;;22.96;64.10
80678;BME280;70042;52.494;5.502;2023-07-29T02:25:02;100753.19;;;22.97;63.83
80678;BME280;70042;52.494;5.502;2023-07-29T02:27:28;100740.81;;;22.96;63.82
80678;BME280;70042;52.494;5.502;2023-07-29T02:29:53;100741.72;;;22.95;63.89
80678;BME280;70042;52.494;5.502;2023-07-29T02:32:19;100736.41;;;22.95;63.93
80678;BME280;70042;52.494;5.502;2023-07-29T02:34:45;100737.41;;;22.92;63.80
80678;BME280;70042;52.494;5.502;2023-07-29T02:37:10;100747.06;;;22.95;63.90
80678;BME280;70042;52.494;5.502;2023-07-29T02:39:36;100747.22;;;22.92;64.17
80678;BME280;70042;52.494;5.502;2023-07-29T02:42:02;100741.19;;;22.88;64.20
80678;BME280;70042;52.494;5.502;2023-07-29T02:44:27;100734.19;;;22.85;64.18
80678;BME280;70042;52.494;5.502;2023-07-29T02:46:53;100744.13;;;22.82;64.29
80678;BME280;70042;52.494;5.502;2023-07-29T02:49:21;100736.22;;;22.80;64.49
80678;BME280;70042;52.494;5.502;2023-07-29T02:51:46;100742.31;;;22.82;64.08
80678;BME280;70042;52.494;5.502;2023-07-29T02:54:11;100736.13;;;22.82;64.06
80678;BME280;70042;52.494;5.502;2023-07-29T02:56:37;100733.56;;;22.80;64.35
80678;BME280;70042;52.494;5.502;2023-07-29T02:59:02;100724.63;;;22.81;63.98
80678;BME280;70042;52.494;5.502;2023-07-29T03:01:28;100729.97;;;22.81;64.08
80678;BME280;70042;52.494;5.502;2023-07-29T03:03:53;100731.66;;;22.82;64.16
80678;BME280;70042;52.494;5.502;2023-07-29T03:06:19;100729.00;;;22.82;64.00
80678;BME280;70042;52.494;5.502;2023-07-29T03:08:44;100727.38;;;22.80;64.07
80678;BME280;70042;52.494;5.502;2023-07-29T03:11:12;100729.97;;;22.81;64.05
80678;BME280;70042;52.494;5.502;2023-07-29T03:13:38;100729.97;;;22.81;64.03
80678;BME280;70042;52.494;5.502;2023-07-29T03:16:11;100730.94;;;22.79;64.18
80678;BME280;70042;52.494;5.502;2023-07-29T03:18:37;100725.78;;;22.76;64.31
80678;BME280;70042;52.494;5.502;2023-07-29T03:21:02;100728.38;;;22.77;64.18
80678;BME280;70042;52.494;5.502;2023-07-29T03:23:29;100726.63;;;22.76;63.71
80678;BME280;70042;52.494;5.502;2023-07-29T03:25:59;100724.13;;;22.73;64.04
80678;BME280;70042;52.494;5.502;2023-07-29T03:28:26;100724.28;;;22.70;64.16
80678;BME280;70042;52.494;5.502;2023-07-29T03:30:53;100725.19;;;22.69;64.44
80678;BME280;70042;52.494;5.502;2023-07-29T03:33:18;100716.22;;;22.72;64.19
80678;BME280;70042;52.494;5.502;2023-07-29T03:35:44;100704.63;;;22.73;64.38
80678;BME280;70042;52.494;5.502;2023-07-29T03:38:10;100705.47;;;22.73;64.08
80678;BME280;70042;52.494;5.502;2023-07-29T03:40:36;100706.28;;;22.75;64.26
80678;BME280;70042;52.494;5.502;2023-07-29T03:43:02;100703.75;;;22.72;63.90
80678;BME280;70042;52.494;5.502;2023-07-29T03:45:27;100706.19;;;22.77;63.85
80678;BME280;70042;52.494;5.502;2023-07-29T03:47:52;100703.47;;;22.78;63.78
80678;BME280;70042;52.494;5.502;2023-07-29T03:50:18;100702.59;;;22.78;63.73
80678;BME280;70042;52.494;5.502;2023-07-29T03:52:43;100708.00;;;22.76;63.73
80678;BME280;70042;52.494;5.502;2023-07-29T03:55:09;100705.31;;;22.76;63.66
80678;BME280;70042;52.494;5.502;2023-07-29T03:57:34;100690.16;;;22.78;63.72
80678;BME280;70042;52.494;5.502;2023-07-29T03:59:59;100693.75;;;22.77;63.80
80678;BME280;70042;52.494;5.502;2023-07-29T04:02:25;100696.41;;;22.77;63.64
80678;BME280;70042;52.494;5.502;2023-07-29T04:04:50;100695.63;;;22.75;63.66
80678;BME280;70042;52.494;5.502;2023-07-29T04:07:15;100690.44;;;22.72;63.69
80678;BME280;70042;52.494;5.502;2023-07-29T04:09:41;100695.91;;;22.69;63.79
80678;BME280;70042;52.494;5.502;2023-07-29T04:12:08;100704.75;;;22.70;64.04
80678;BME280;70042;52.494;5.502;2023-07-29T04:14:34;100693.19;;;22.71;63.80
80678;BME280;70042;52.494;5.502;2023-07-29T04:16:59;100709.31;;;22.68;63.90
80678;BME280;70042;52.494;5.502;2023-07-29T04:19:24;100715.34;;;22.71;63.85
80678;BME280;70042;52.494;5.502;2023-07-29T04:21:49;100717.16;;;22.71;63.89
80678;BME280;70042;52.494;5.502;2023-07-29T04:24:16;100723.50;;;22.68;63.81
80678;BME280;70042;52.494;5.502;2023-07-29T04:26:41;100721.59;;;22.70;63.87
80678;BME280;70042;52.494;5.502;2023-07-29T04:29:06;100722.47;;;22.71;63.95
80678;BME280;70042;52.494;5.502;2023-07-29T04:31:32;100717.22;;;22.69;64.05
80678;BME280;70042;52.494;5.502;2023-07-29T04:33:57;100719.88;;;22.69;63.93
80678;BME280;70042;52.494;5.502;2023-07-29T04:36:23;100719.81;;;22.71;63.77
80678;BME280;70042;52.494;5.502;2023-07-29T04:38:48;100725.06;;;22.72;63.54
80678;BME280;70042;52.494;5.502;2023-07-29T04:41:13;100712.75;;;22.70;63.70
80678;BME280;70042;52.494;5.502;2023-07-29T04:43:39;100716.44;;;22.67;64.04
80678;BME280;70042;52.494;5.502;2023-07-29T04:46:07;100720.03;;;22.66;64.01
80678;BME280;70042;52.494;5.502;2023-07-29T04:48:33;100715.69;;;22.64;63.73
80678;BME280;70042;52.494;5.502;2023-07-29T04:50:59;100713.88;;;22.64;63.72
80678;BME280;70042;52.494;5.502;2023-07-29T04:53:24;100721.88;;;22.64;63.97
80678;BME280;70042;52.494;5.502;2023-07-29T04:55:50;100728.97;;;22.65;63.79
80678;BME280;70042;52.494;5.502;2023-07-29T04:58:15;100732.53;;;22.64;64.25
80678;BME280;70042;52.494;5.502;2023-07-29T05:00:41;100731.63;;;22.65;63.76
80678;BME280;70042;52.494;5.502;2023-07-29T05:03:06;100723.63;;;22.65;63.68
80678;BME280;70042;52.494;5.502;2023-07-29T05:05:32;100711.22;;;22.64;63.97
80678;BME280;70042;52.494;5.502;2023-07-29T05:07:57;100714.03;;;22.61;64.08
80678;BME280;70042;52.494;5.502;2023-07-29T05:10:22;100719.22;;;22.64;63.57
80678;BME280;70042;52.494;5.502;2023-07-29T05:12:49;100719.31;;;22.63;63.93
80678;BME280;70042;52.494;5.502;2023-07-29T05:15:14;100725.34;;;22.66;63.68
80678;BME280;70042;52.494;5.502;2023-07-29T05:17:40;100716.53;;;22.64;63.65
80678;BME280;70042;52.494;5.502;2023-07-29T05:20:05;100720.06;;;22.65;63.51
80678;BME280;70042;52.494;5.502;2023-07-29T05:22:31;100715.56;;;22.67;63.72
80678;BME280;70042;52.494;5.502;2023-07-29T05:24:56;100732.41;;;22.67;63.74
80678;BME280;70042;52.494;5.502;2023-07-29T05:27:22;100728.97;;;22.65;63.67
80678;BME280;70042;52.494;5.502;2023-07-29T05:29:47;100731.75;;;22.62;63.86
80678;BME280;70042;52.494;5.502;2023-07-29T05:32:13;100722.75;;;22.65;63.86
80678;BME280;70042;52.494;5.502;2023-07-29T05:34:38;100729.88;;;22.64;63.37
80678;BME280;70042;52.494;5.502;2023-07-29T05:37:04;100731.63;;;22.65;63.63
80678;BME280;70042;52.494;5.502;2023-07-29T05:39:30;100727.19;;;22.64;63.68
80678;BME280;70042;52.494;5.502;2023-07-29T05:41:57;100736.25;;;22.60;63.76
80678;BME280;70042;52.494;5.502;2023-07-29T05:44:23;100730.88;;;22.62;63.66
80678;BME280;70042;52.494;5.502;2023-07-29T05:46:48;100733.53;;;22.62;63.74
80678;BME280;70042;52.494;5.502;2023-07-29T05:49:13;100739.88;;;22.59;63.72
80678;BME280;70042;52.494;5.502;2023-07-29T05:51:39;100743.63;;;22.55;64.13
80678;BME280;70042;52.494;5.502;2023-07-29T05:54:04;100738.44;;;22.52;64.05
80678;BME280;70042;52.494;5.502;2023-07-29T05:56:29;100740.22;;;22.52;64.31
80678;BME280;70042;52.494;5.502;2023-07-29T05:58:56;100739.44;;;22.50;64.10
80678;BME280;70042;52.494;5.502;2023-07-29T06:01:22;100741.25;;;22.49;64.31
80678;BME280;70042;52.494;5.502;2023-07-29T06:03:47;100741.28;;;22.48;64.21
80678;BME280;70042;52.494;5.502;2023-07-29T06:06:13;100742.16;;;22.48;64.29
80678;BME280;70042;52.494;5.502;2023-07-29T06:08:38;100742.16;;;22.48;64.18
80678;BME280;70042;52.494;5.502;2023-07-29T06:11:04;100751.16;;;22.46;64.33
80678;BME280;70042;52.494;5.502;2023-07-29T06:13:34;100743.22;;;22.44;64.48
80678;BME280;70042;52.494;5.502;2023-07-29T06:15:59;100746.84;;;22.43;64.29
80678;BME280;70042;52.494;5.502;2023-07-29T06:20:51;100737.13;;;22.42;64.39
80678;BME280;70042;52.494;5.502;2023-07-29T06:25:42;100742.44;;;22.42;64.44
80678;BME280;70042;52.494;5.502;2023-07-29T06:28:08;100744.19;;;22.43;64.42
80678;BME280;70042;52.494;5.502;2023-07-29T06:30:34;100745.06;;;22.44;64.58
80678;BME280;70042;52.494;5.502;2023-07-29T06:32:59;100736.06;;;22.46;64.32
80678;BME280;70042;52.494;5.502;2023-07-29T06:35:24;100745.75;;;22.47;64.22
80678;BME280;70042;52.494;5.502;2023-07-29T06:37:50;100749.22;;;22.49;64.19
80678;BME280;70042;52.494;5.502;2023-07-29T06:40:15;100750.16;;;22.48;64.61
80678;BME280;70042;52.494;5.502;2023-07-29T06:42:41;100745.75;;;22.47;64.30
80678;BME280;70042;52.494;5.502;2023-07-29T06:45:06;100751.06;;;22.47;64.62
80678;BME280;70042;52.494;5.502;2023-07-29T06:47:32;100750.25;;;22.47;64.38
80678;BME280;70042;52.494;5.502;2023-07-29T06:49:57;100749.38;;;22.46;64.43
80678;BME280;70042;52.494;5.502;2023-07-29T06:52:23;100753.81;;;22.46;64.44
80678;BME280;70042;52.494;5.502;2023-07-29T06:54:48;100744.03;;;22.46;64.33
80678;BME280;70042;52.494;5.502;2023-07-29T06:57:14;100744.81;;;22.48;64.35
80678;BME280;70042;52.494;5.502;2023-07-29T06:59:39;100741.28;;;22.48;64.60
80678;BME280;70042;52.494;5.502;2023-07-29T07:02:06;100751.88;;;22.49;64.52
80678;BME280;70042;52.494;5.502;2023-07-29T07:04:31;100741.25;;;22.49;64.52
80678;BME280;70042;52.494;5.502;2023-07-29T07:06:56;100743.91;;;22.49;64.35
80678;BME280;70042;52.494;5.502;2023-07-29T07:09:22;100750.00;;;22.51;64.28
80678;BME280;70042;52.494;5.502;2023-07-29T07:11:47;100750.88;;;22.52;64.37
80678;BME280;70042;52.494;5.502;2023-07-29T07:14:13;100757.94;;;22.53;64.56
80678;BME280;70042;52.494;5.502;2023-07-29T07:16:38;100751.66;;;22.54;64.41
80678;BME280;70042;52.494;5.502;2023-07-29T07:19:04;100760.50;;;22.54;64.58
80678;BME280;70042;52.494;5.502;2023-07-29T07:21:30;100748.16;;;22.53;64.22
80678;BME280;70042;52.494;5.502;2023-07-29T07:23:57;100756.16;;;22.53;64.58
80678;BME280;70042;52.494;5.502;2023-07-29T07:26:23;100753.47;;;22.53;64.53
80678;BME280;70042;52.494;5.502;2023-07-29T07:28:49;100751.66;;;22.54;64.46
80678;BME280;70042;52.494;5.502;2023-07-29T07:31:14;100761.47;;;22.53;64.43
80678;BME280;70042;52.494;5.502;2023-07-29T07:33:41;100766.78;;;22.53;64.41
80678;BME280;70042;52.494;5.502;2023-07-29T07:36:06;100772.13;;;22.53;64.37
80678;BME280;70042;52.494;5.502;2023-07-29T07:38:32;100756.16;;;22.53;64.19
80678;BME280;70042;52.494;5.502;2023-07-29T07:40:57;100756.97;;;22.54;64.42
80678;BME280;70042;52.494;5.502;2023-07-29T07:43:23;100757.84;;;22.54;64.43
80678;BME280;70042;52.494;5.502;2023-07-29T07:45:48;100772.13;;;22.53;64.39
80678;BME280;70042;52.494;5.502;2023-07-29T07:48:14;100768.50;;;22.54;64.41
80678;BME280;70042;52.494;5.502;2023-07-29T07:50:41;100771.13;;;22.56;64.44
80678;BME280;70042;52.494;5.502;2023-07-29T07:53:07;100758.66;;;22.56;64.37
80678;BME280;70042;52.494;5.502;2023-07-29T07:55:32;100763.03;;;22.57;64.30
80678;BME280;70042;52.494;5.502;2023-07-29T07:57:57;100768.22;;;22.60;64.27
80678;BME280;70042;52.494;5.502;2023-07-29T08:00:23;100765.56;;;22.60;64.24
80678;BME280;70042;52.494;5.502;2023-07-29T08:02:48;100764.63;;;22.61;64.20
80678;BME280;70042;52.494;5.502;2023-07-29T08:05:13;100772.66;;;22.60;64.16
80678;BME280;70042;52.494;5.502;2023-07-29T08:07:39;100774.34;;;22.62;64.19
80678;BME280;70042;52.494;5.502;2023-07-29T08:10:04;100775.13;;;22.64;64.24
80678;BME280;70042;52.494;5.502;2023-07-29T08:12:30;100765.28;;;22.66;63.97
80678;BME280;70042;52.494;5.502;2023-07-29T08:14:55;100780.28;;;22.69;64.18
80678;BME280;70042;52.494;5.502;2023-07-29T08:17:21;100770.47;;;22.69;64.27
80678;BME280;70042;52.494;5.502;2023-07-29T08:19:46;100771.34;;;22.70;64.34
80678;BME280;70042;52.494;5.502;2023-07-29T08:22:12;100772.31;;;22.69;64.27
80678;BME280;70042;52.494;5.502;2023-07-29T08:24:37;100774.00;;;22.70;64.28
80678;BME280;70042;52.494;5.502;2023-07-29T08:27:03;100765.97;;;22.71;66.03
80678;BME280;70042;52.494;5.502;2023-07-29T08:29:28;100758.59;;;22.76;65.55
80678;BME280;70042;52.494;5.502;2023-07-29T08:31:54;100764.50;;;22.83;66.87
80678;BME280;70042;52.494;5.502;2023-07-29T08:34:20;100758.00;;;22.89;65.05
80678;BME280;70042;52.494;5.502;2023-07-29T08:36:46;100748.06;;;22.92;64.90
80678;BME280;70042;52.494;5.502;2023-07-29T08:39:11;100755.88;;;22.97;64.79
80678;BME280;70042;52.494;5.502;2023-07-29T08:42:10;100756.66;;;22.99;64.43
80678;BME280;70042;52.494;5.502;2023-07-29T08:44:43;100764.47;;;23.02;64.34
80678;BME280;70042;52.494;5.502;2023-07-29T08:47:09;100757.31;;;23.04;64.27
80678;BME280;70042;52.494;5.502;2023-07-29T08:49:35;100769.66;;;23.05;64.55
80678;BME280;70042;52.494;5.502;2023-07-29T08:52:02;100767.88;;;23.05;64.34
80678;BME280;70042;52.494;5.502;2023-07-29T08:54:28;100765.22;;;23.05;64.84
80678;BME280;70042;52.494;5.502;2023-07-29T08:56:53;100773.16;;;23.07;64.77
80678;BME280;70042;52.494;5.502;2023-07-29T08:59:19;100774.06;;;23.06;64.90
80678;BME280;70042;52.494;5.502;2023-07-29T09:01:45;100773.97;;;23.07;64.80
80678;BME280;70042;52.494;5.502;2023-07-29T09:04:11;100778.53;;;23.05;64.60
80678;BME280;70042;52.494;5.502;2023-07-29T09:06:37;100785.66;;;23.05;64.64
80678;BME280;70042;52.494;5.502;2023-07-29T09:09:04;100781.34;;;23.02;64.47
80678;BME280;70042;52.494;5.502;2023-07-29T09:11:30;100784.09;;;23.01;64.85
80678;BME280;70042;52.494;5.502;2023-07-29T09:13:56;100775.28;;;22.99;64.95
80678;BME280;70042;52.494;5.502;2023-07-29T09:16:22;100769.97;;;22.99;64.83
80678;BME280;70042;52.494;5.502;2023-07-29T09:18:48;100770.88;;;22.98;65.08
80678;BME280;70042;52.494;5.502;2023-07-29T09:21:16;100788.72;;;22.97;64.97
80678;BME280;70042;52.494;5.502;2023-07-29T09:23:42;100781.66;;;22.96;64.97
80678;BME280;70042;52.494;5.502;2023-07-29T09:26:08;100771.84;;;22.97;64.76
80678;BME280;70042;52.494;5.502;2023-07-29T09:28:34;100777.19;;;22.97;64.74
80678;BME280;70042;52.494;5.502;2023-07-29T09:31:00;100777.91;;;23.00;64.68
80678;BME280;70042;52.494;5.502;2023-07-29T09:33:26;100769.81;;;23.02;64.76
80678;BME280;70042;52.494;5.502;2023-07-29T09:35:51;100782.22;;;23.03;64.78
80678;BME280;70042;52.494;5.502;2023-07-29T09:38:17;100775.00;;;23.05;64.61
80678;BME280;70042;52.494;5.502;2023-07-29T09:40:42;100789.13;;;23.07;64.54
80678;BME280;70042;52.494;5.502;2023-07-29T09:43:10;100783.81;;;23.07;64.50
80678;BME280;70042;52.494;5.502;2023-07-29T09:45:36;100781.03;;;23.08;64.74
80678;BME280;70042;52.494;5.502;2023-07-29T09:48:03;100790.69;;;23.11;64.66
80678;BME280;70042;52.494;5.502;2023-07-29T09:50:30;100789.75;;;23.12;64.71
80678;BME280;70042;52.494;5.502;2023-07-29T09:52:56;100790.53;;;23.14;64.62
80678;BME280;70042;52.494;5.502;2023-07-29T09:55:24;100790.53;;;23.14;64.66
80678;BME280;70042;52.494;5.502;2023-07-29T09:57:55;100797.59;;;23.15;64.52
80678;BME280;70042;52.494;5.502;2023-07-29T10:00:21;100788.84;;;23.13;64.57
80678;BME280;70042;52.494;5.502;2023-07-29T10:02:46;100795.97;;;23.12;64.55
80678;BME280;70042;52.494;5.502;2023-07-29T10:05:12;100794.31;;;23.10;64.42
80678;BME280;70042;52.494;5.502;2023-07-29T10:07:38;100786.22;;;23.11;64.50
80678;BME280;70042;52.494;5.502;2023-07-29T10:10:04;100800.41;;;23.12;64.16
80678;BME280;70042;52.494;5.502;2023-07-29T10:12:31;100790.84;;;23.08;64.29
80678;BME280;70042;52.494;5.502;2023-07-29T10:14:59;100800.41;;;23.12;64.28
80678;BME280;70042;52.494;5.502;2023-07-29T10:17:26;100797.59;;;23.15;64.64
80678;BME280;70042;52.494;5.502;2023-07-29T10:19:52;100785.94;;;23.17;64.21
80678;BME280;70042;52.494;5.502;2023-07-29T10:22:24;100797.25;;;23.22;64.18
80678;BME280;70042;52.494;5.502;2023-07-29T10:24:51;100788.28;;;23.23;64.41
80678;BME280;70042;52.494;5.502;2023-07-29T10:27:19;100786.50;;;23.24;63.92
80678;BME280;70042;52.494;5.502;2023-07-29T10:29:46;100790.03;;;23.24;63.78
80678;BME280;70042;52.494;5.502;2023-07-29T10:32:12;100787.31;;;23.26;63.79
80678;BME280;70042;52.494;5.502;2023-07-29T10:34:38;100790.66;;;23.29;63.31
80678;BME280;70042;52.494;5.502;2023-07-29T10:37:05;100792.34;;;23.32;63.29
80678;BME280;70042;52.494;5.502;2023-07-29T10:39:40;100796.53;;;23.36;63.20
80678;BME280;70042;52.494;5.502;2023-07-29T10:42:06;100801.88;;;23.36;63.43
80678;BME280;70042;52.494;5.502;2023-07-29T10:47:19;100798.09;;;23.42;63.37
80678;BME280;70042;52.494;5.502;2023-07-29T10:49:47;100796.28;;;23.42;63.73
80678;BME280;70042;52.494;5.502;2023-07-29T10:52:17;100798.00;;;23.43;63.66
80678;BME280;70042;52.494;5.502;2023-07-29T10:54:52;100785.47;;;23.45;63.71
80678;BME280;70042;52.494;5.502;2023-07-29T10:57:34;100783.50;;;23.49;63.55
80678;BME280;70042;52.494;5.502;2023-07-29T11:00:01;100782.47;;;23.51;63.31
80678;BME280;70042;52.494;5.502;2023-07-29T11:02:30;100790.34;;;23.54;63.22
80678;BME280;70042;52.494;5.502;2023-07-29T11:04:56;100782.19;;;23.57;62.83
80678;BME280;70042;52.494;5.502;2023-07-29T11:07:22;100787.44;;;23.59;62.90
80678;BME280;70042;52.494;5.502;2023-07-29T11:12:39;100792.06;;;23.55;62.95
80678;BME280;70042;52.494;5.502;2023-07-29T11:20:13;100793.94;;;23.53;62.96
80678;BME280;70042;52.494;5.502;2023-07-29T11:22:39;100795.69;;;23.54;62.91
80678;BME280;70042;52.494;5.502;2023-07-29T11:25:06;100796.53;;;23.55;62.47
80678;BME280;70042;52.494;5.502;2023-07-29T11:27:32;100806.22;;;23.57;62.42
80678;BME280;70042;52.494;5.502;2023-07-29T11:29:58;100801.72;;;23.58;62.52
80678;BME280;70042;52.494;5.502;2023-07-29T11:32:24;100806.22;;;23.57;62.24
80678;BME280;70042;52.494;5.502;2023-07-29T11:34:50;100807.13;;;23.56;62.32
80678;BME280;70042;52.494;5.502;2023-07-29T11:37:16;100806.22;;;23.57;62.27
80678;BME280;70042;52.494;5.502;2023-07-29T11:39:41;100803.53;;;23.57;62.37
80678;BME280;70042;52.494;5.502;2023-07-29T11:42:10;100800.88;;;23.57;62.37
80678;BME280;70042;52.494;5.502;2023-07-29T11:44:36;100795.53;;;23.57;62.39
80678;BME280;70042;52.494;5.502;2023-07-29T11:47:01;100796.47;;;23.56;62.12
80678;BME280;70042;52.494;5.502;2023-07-29T11:49:27;100808.06;;;23.55;62.30
80678;BME280;70042;52.494;5.502;2023-07-29T11:51:52;100799.28;;;23.53;62.10
80678;BME280;70042;52.494;5.502;2023-07-29T11:54:18;100809.97;;;23.53;62.15
80678;BME280;70042;52.494;5.502;2023-07-29T11:56:47;100808.22;;;23.52;62.30
80678;BME280;70042;52.494;5.502;2023-07-29T11:59:13;100810.88;;;23.52;62.23
80678;BME280;70042;52.494;5.502;2023-07-29T12:01:39;100809.09;;;23.53;62.32
80678;BME280;70042;52.494;5.502;2023-07-29T12:04:05;100819.69;;;23.54;62.21
80678;BME280;70042;52.494;5.502;2023-07-29T12:06:30;100818.72;;;23.55;62.18
80678;BME280;70042;52.494;5.502;2023-07-29T12:08:56;100815.91;;;23.58;62.27
80678;BME280;70042;52.494;5.502;2023-07-29T12:11:22;100813.25;;;23.58;62.42
80678;BME280;70042;52.494;5.502;2023-07-29T12:13:47;100813.09;;;23.61;62.15
80678;BME280;70042;52.494;5.502;2023-07-29T12:16:16;100801.56;;;23.61;62.00
80678;BME280;70042;52.494;5.502;2023-07-29T12:18:42;100807.75;;;23.61;62.08
80678;BME280;70042;52.494;5.502;2023-07-29T12:21:08;100803.28;;;23.62;61.97
80678;BME280;70042;52.494;5.502;2023-07-29T12:23:33;100805.03;;;23.63;61.87
80678;BME280;70042;52.494;5.502;2023-07-29T12:25:59;100801.50;;;23.62;62.20
80678;BME280;70042;52.494;5.502;2023-07-29T12:28:25;100809.50;;;23.62;61.86
80678;BME280;70042;52.494;5.502;2023-07-29T12:30:57;100813.09;;;23.61;62.13
80678;BME280;70042;52.494;5.502;2023-07-29T12:33:36;100805.97;;;23.62;62.10
80678;BME280;70042;52.494;5.502;2023-07-29T12:36:07;100801.56;;;23.61;62.02
80678;BME280;70042;52.494;5.502;2023-07-29T12:38:32;100802.41;;;23.61;62.00
80678;BME280;70042;52.494;5.502;2023-07-29T12:40:58;100806.88;;;23.61;61.95
80678;BME280;70042;52.494;5.502;2023-07-29T12:43:24;100806.06;;;23.60;61.99
80678;BME280;70042;52.494;5.502;2023-07-29T12:45:50;100806.06;;;23.60;61.89
80678;BME280;70042;52.494;5.502;2023-07-29T12:48:15;100806.97;;;23.59;61.98
80678;BME280;70042;52.494;5.502;2023-07-29T12:50:40;100814.22;;;23.57;62.01
80678;BME280;70042;52.494;5.502;2023-07-29T12:53:07;100814.38;;;23.54;62.19
80678;BME280;70042;52.494;5.502;2023-07-29T12:55:33;100815.28;;;23.53;62.19
80678;BME280;70042;52.494;5.502;2023-07-29T12:57:58;100813.56;;;23.52;62.25
80678;BME280;70042;52.494;5.502;2023-07-29T13:00:24;100816.06;;;23.55;62.06
80678;BME280;70042;52.494;5.502;2023-07-29T13:02:50;100808.00;;;23.57;62.19
80678;BME280;70042;52.494;5.502;2023-07-29T13:05:15;100804.47;;;23.56;62.43